createdAt,value
2022-08-28T00:02:02.117Z,54.74
2022-08-28T00:04:06.646Z,54.81
2022-08-28T00:06:11.176Z,54.84
2022-08-28T00:08:15.962Z,54.95
2022-08-28T00:10:23.509Z,54.92
2022-08-28T00:12:28.006Z,54.94
2022-08-28T00:14:32.532Z,54.9
2022-08-28T00:16:37.304Z,54.94
2022-08-28T00:18:42.102Z,54.94
2022-08-28T00:20:46.624Z,54.89
2022-08-28T00:22:51.126Z,54.92
2022-08-28T00:24:58.030Z,54.92
2022-08-28T00:27:02.506Z,54.91
2022-08-28T00:29:07.057Z,54.93
2022-08-28T00:31:11.715Z,54.9
2022-08-28T00:33:16.294Z,54.87
2022-08-28T00:35:20.901Z,54.82
2022-08-28T00:37:27.175Z,54.87
2022-08-28T00:39:31.643Z,54.84
2022-08-28T00:41:42.266Z,54.79
2022-08-28T00:43:46.978Z,54.75
2022-08-28T00:45:51.467Z,54.73
2022-08-28T00:47:55.986Z,54.8
2022-08-28T00:50:00.487Z,54.81
2022-08-28T00:52:04.985Z,54.79
2022-08-28T00:54:10.190Z,54.81
2022-08-28T00:56:15.460Z,54.77
2022-08-28T00:58:20.004Z,54.87
2022-08-28T01:00:24.555Z,54.81
2022-08-28T01:02:29.328Z,54.79
2022-08-28T01:04:36.178Z,54.72
2022-08-28T01:06:40.880Z,54.69
2022-08-28T01:08:51.444Z,54.66
2022-08-28T01:10:55.966Z,54.64
2022-08-28T01:13:00.478Z,54.72
2022-08-28T01:15:05.008Z,54.72
2022-08-28T01:17:09.526Z,54.74
2022-08-28T01:19:13.970Z,54.74
2022-08-28T01:21:22.735Z,54.75
2022-08-28T01:23:27.268Z,54.7
2022-08-28T01:25:31.790Z,54.65
2022-08-28T01:27:36.247Z,54.75
2022-08-28T01:29:40.832Z,54.77
2022-08-28T01:31:49.228Z,54.79
2022-08-28T01:33:53.830Z,54.85
2022-08-28T01:35:58.340Z,54.82
2022-08-28T01:38:02.832Z,54.82
2022-08-28T01:40:07.573Z,54.86
2022-08-28T01:42:12.242Z,54.85
2022-08-28T01:44:20.140Z,54.83
2022-08-28T01:46:24.853Z,54.85
2022-08-28T01:48:29.386Z,54.85
2022-08-28T01:50:33.901Z,54.81
2022-08-28T01:52:39.289Z,54.82
2022-08-28T01:54:44.617Z,54.84
2022-08-28T01:56:49.071Z,54.83
2022-08-28T01:58:53.582Z,54.82
2022-08-28T02:00:58.237Z,54.89
2022-08-28T02:03:02.738Z,54.91
2022-08-28T02:05:07.275Z,54.91
2022-08-28T02:07:11.790Z,54.9
2022-08-28T02:09:16.962Z,54.96
2022-08-28T02:11:21.544Z,55.03
2022-08-28T02:13:27.704Z,54.99
2022-08-28T02:15:32.578Z,55.04
2022-08-28T02:17:37.129Z,55.01
2022-08-28T02:19:41.662Z,55.06
2022-08-28T02:21:46.287Z,55.09
2022-08-28T02:23:50.812Z,54.99
2022-08-28T02:25:55.324Z,55
2022-08-28T02:27:59.848Z,55.04
2022-08-28T02:30:04.357Z,55.05
2022-08-28T02:32:08.832Z,55.03
2022-08-28T02:34:13.396Z,54.98
2022-08-28T02:36:18.021Z,54.95
2022-08-28T02:38:22.535Z,54.99
2022-08-28T02:40:27.237Z,55.02
2022-08-28T02:42:31.950Z,54.93
2022-08-28T02:44:36.498Z,55.04
2022-08-28T02:46:42.140Z,55.08
2022-08-28T02:48:46.662Z,55.12
2022-08-28T02:50:51.146Z,55.12
2022-08-28T02:52:55.694Z,55.11
2022-08-28T02:55:00.161Z,55.12
2022-08-28T02:57:04.736Z,55.04
2022-08-28T02:59:09.258Z,55
2022-08-28T03:01:13.901Z,55.04
2022-08-28T03:03:18.495Z,55.04
2022-08-28T03:05:23.106Z,54.99
2022-08-28T03:07:27.570Z,54.98
2022-08-28T03:09:32.153Z,54.98
2022-08-28T03:11:36.774Z,55.01
2022-08-28T03:13:41.297Z,54.95
2022-08-28T03:15:52.979Z,54.94
2022-08-28T03:18:00.362Z,54.83
2022-08-28T03:20:04.982Z,54.9
2022-08-28T03:22:09.504Z,54.86
2022-08-28T03:24:17.810Z,54.95
2022-08-28T03:26:22.324Z,54.92
2022-08-28T03:28:26.826Z,54.95
2022-08-28T03:30:31.623Z,54.9
2022-08-28T03:32:36.191Z,54.91
2022-08-28T03:34:40.712Z,54.91
2022-08-28T03:36:45.228Z,54.94
2022-08-28T03:38:49.689Z,54.92
2022-08-28T03:40:54.206Z,54.91
2022-08-28T03:43:00.525Z,54.8
2022-08-28T03:45:05.146Z,54.83
2022-08-28T03:47:09.762Z,54.78
2022-08-28T03:49:14.912Z,54.85
2022-08-28T03:51:25.522Z,54.91
2022-08-28T03:53:34.584Z,54.86
2022-08-28T03:55:41.240Z,54.85
2022-08-28T03:57:45.773Z,54.74
2022-08-28T03:59:50.287Z,54.93
2022-08-28T04:01:54.907Z,54.83
2022-08-28T04:04:00.961Z,54.92
2022-08-28T04:06:05.461Z,54.94
2022-08-28T04:08:10.042Z,54.91
2022-08-28T04:10:14.594Z,54.82
2022-08-28T04:12:19.139Z,54.83
2022-08-28T04:14:23.637Z,54.91
2022-08-28T04:16:28.378Z,54.86
2022-08-28T04:18:33.006Z,54.87
2022-08-28T04:20:37.517Z,54.88
2022-08-28T04:22:42.042Z,54.78
2022-08-28T04:24:49.695Z,54.8
2022-08-28T04:26:54.245Z,54.77
2022-08-28T04:28:58.767Z,54.83
2022-08-28T04:31:03.271Z,54.78
2022-08-28T04:33:07.788Z,54.7
2022-08-28T04:35:12.255Z,54.72
2022-08-28T04:37:16.941Z,54.71
2022-08-28T04:39:21.454Z,54.71
2022-08-28T04:41:26.035Z,54.76
2022-08-28T04:43:30.595Z,54.77
2022-08-28T04:45:35.308Z,54.8
2022-08-28T04:47:39.995Z,54.75
2022-08-28T04:49:44.515Z,54.73
2022-08-28T04:51:49.193Z,54.75
2022-08-28T04:53:53.669Z,54.85
2022-08-28T04:55:58.323Z,54.8
2022-08-28T04:58:02.893Z,54.78
2022-08-28T05:00:07.431Z,54.78
2022-08-28T05:02:12.224Z,54.8
2022-08-28T05:04:16.805Z,54.74
2022-08-28T05:06:21.314Z,54.73
2022-08-28T05:08:25.817Z,54.67
2022-08-28T05:10:30.341Z,54.65
2022-08-28T05:12:34.877Z,54.64
2022-08-28T05:14:39.453Z,54.71
2022-08-28T05:16:44.405Z,54.72
2022-08-28T05:18:48.913Z,54.81
2022-08-28T05:20:53.413Z,54.8
2022-08-28T05:22:57.935Z,54.71
2022-08-28T05:25:02.469Z,54.77
2022-08-28T05:27:07.019Z,54.74
2022-08-28T05:29:11.526Z,54.78
2022-08-28T05:31:16.397Z,54.65
2022-08-28T05:33:20.946Z,54.82
2022-08-28T05:35:25.491Z,54.85
2022-08-28T05:37:30.017Z,54.81
2022-08-28T05:39:34.637Z,54.76
2022-08-28T05:41:39.156Z,54.78
2022-08-28T05:43:43.674Z,54.8
2022-08-28T05:45:48.425Z,54.77
2022-08-28T05:47:53.024Z,54.75
2022-08-28T05:49:57.489Z,54.77
2022-08-28T05:52:02.096Z,54.81
2022-08-28T05:54:06.577Z,54.87
2022-08-28T05:56:10.929Z,54.85
2022-08-28T05:58:16.158Z,54.89
2022-08-28T06:00:20.525Z,54.95
2022-08-28T06:02:24.896Z,54.9
2022-08-28T06:04:29.655Z,54.89
2022-08-28T06:06:34.027Z,54.87
2022-08-28T06:08:38.475Z,54.79
2022-08-28T06:11:05.056Z,54.79
2022-08-28T06:13:11.404Z,54.79
2022-08-28T06:15:15.982Z,54.8
2022-08-28T06:17:25.725Z,54.9
2022-08-28T06:19:30.183Z,54.94
2022-08-28T06:21:34.697Z,54.96
2022-08-28T06:23:39.188Z,55.02
2022-08-28T06:25:45.836Z,55.15
2022-08-28T06:27:50.413Z,55.07
2022-08-28T06:29:54.927Z,55.17
2022-08-28T06:31:59.713Z,55.2
2022-08-28T06:34:04.370Z,55.24
2022-08-28T06:36:08.868Z,55.27
2022-08-28T06:38:13.613Z,55.28
2022-08-28T06:40:18.403Z,55.36
2022-08-28T06:42:22.917Z,55.36
2022-08-28T06:44:27.452Z,55.41
2022-08-28T06:46:31.953Z,55.42
2022-08-28T06:48:36.525Z,55.46
2022-08-28T06:50:40.996Z,55.48
2022-08-28T06:52:45.509Z,55.47
2022-08-28T06:54:58.154Z,55.48
2022-08-28T06:57:02.648Z,55.48
2022-08-28T06:59:07.185Z,55.42
2022-08-28T07:01:15.509Z,55.43
2022-08-28T07:03:20.118Z,55.43
2022-08-28T07:05:24.637Z,55.42
2022-08-28T07:07:34.874Z,55.53
2022-08-28T07:09:39.544Z,55.47
2022-08-28T07:11:44.130Z,55.48
2022-08-28T07:13:48.599Z,55.49
2022-08-28T07:15:53.393Z,55.53
2022-08-28T07:17:57.870Z,55.53
2022-08-28T07:20:02.408Z,55.52
2022-08-28T07:22:06.900Z,55.46
2022-08-28T07:24:11.411Z,55.47
2022-08-28T07:26:15.946Z,55.49
2022-08-28T07:28:20.480Z,55.49
2022-08-28T07:30:25.000Z,55.5
2022-08-28T07:32:29.517Z,55.43
2022-08-28T07:34:34.499Z,55.36
2022-08-28T07:36:39.490Z,55.43
2022-08-28T07:38:43.997Z,55.35
2022-08-28T07:40:48.619Z,55.31
2022-08-28T07:42:53.215Z,55.31
2022-08-28T07:44:57.716Z,55.31
2022-08-28T07:47:02.266Z,55.29
2022-08-28T07:49:06.766Z,55.26
2022-08-28T07:51:11.294Z,55.14
2022-08-28T07:53:15.791Z,55.28
2022-08-28T07:55:22.087Z,55.38
2022-08-28T07:57:26.707Z,55.37
2022-08-28T07:59:39.985Z,55.5
2022-08-28T08:01:47.221Z,55.31
2022-08-28T08:04:02.586Z,55.14
2022-08-28T08:06:07.300Z,55.11
2022-08-28T08:08:12.046Z,55.2
2022-08-28T08:10:21.876Z,55.27
2022-08-28T08:12:30.425Z,55.44
2022-08-28T08:14:35.418Z,55.51
2022-08-28T08:16:40.398Z,55.51
2022-08-28T08:18:44.957Z,55.92
2022-08-28T08:20:49.588Z,56.48
2022-08-28T08:22:54.071Z,56.69
2022-08-28T08:24:58.563Z,56.52
2022-08-28T08:27:03.348Z,56.52
2022-08-28T08:29:07.870Z,56.8
2022-08-28T08:31:12.531Z,57.12
2022-08-28T08:33:17.213Z,57.22
2022-08-28T08:35:21.626Z,57.41
2022-08-28T08:37:26.144Z,57.35
2022-08-28T08:39:33.637Z,57.26
2022-08-28T08:41:38.158Z,56.98
2022-08-28T08:43:42.652Z,56.87
2022-08-28T08:45:47.198Z,57.01
2022-08-28T08:47:51.710Z,56.81
2022-08-28T08:49:56.196Z,56.68
2022-08-28T08:52:00.750Z,56.38
2022-08-28T08:54:05.230Z,56.18
2022-08-28T08:56:09.876Z,56.13
2022-08-28T08:58:15.096Z,55.87
2022-08-28T09:00:19.749Z,55.8
2022-08-28T09:02:32.558Z,55.67
2022-08-28T09:04:37.036Z,55.62
2022-08-28T09:06:41.585Z,55.53
2022-08-28T09:08:46.122Z,55.45
2022-08-28T09:10:50.737Z,55.36
2022-08-28T09:12:55.242Z,55.33
2022-08-28T09:14:59.769Z,55.26
2022-08-28T09:17:04.244Z,55.08
2022-08-28T09:19:08.910Z,55.03
2022-08-28T09:21:13.947Z,55.19
2022-08-28T09:23:18.432Z,55.38
2022-08-28T09:25:25.924Z,55.25
2022-08-28T09:27:30.454Z,55.06
2022-08-28T09:29:35.124Z,55
2022-08-28T09:31:39.592Z,55.08
2022-08-28T09:33:44.235Z,55.09
2022-08-28T09:35:48.755Z,54.85
2022-08-28T09:37:53.858Z,54.64
2022-08-28T09:39:58.647Z,54.48
2022-08-28T09:42:03.233Z,54.39
2022-08-28T09:44:07.758Z,54.31
2022-08-28T09:46:12.651Z,54.24
2022-08-28T09:48:17.301Z,54.39
2022-08-28T09:50:21.800Z,54.46
2022-08-28T09:52:27.569Z,54.46
2022-08-28T09:54:32.091Z,54.51
2022-08-28T09:56:36.535Z,54.65
2022-08-28T09:58:41.089Z,54.31
2022-08-28T10:00:45.601Z,54.55
2022-08-28T10:02:50.504Z,54.66
2022-08-28T10:04:54.998Z,54.5
2022-08-28T10:06:59.593Z,54.59
2022-08-28T10:09:05.650Z,54.73
2022-08-28T10:11:10.385Z,54.57
2022-08-28T10:13:15.121Z,54.87
2022-08-28T10:15:19.685Z,55.19
2022-08-28T10:17:24.249Z,55.07
2022-08-28T10:19:28.881Z,55.04
2022-08-28T10:21:33.335Z,55.19
2022-08-28T10:23:37.895Z,55.27
2022-08-28T10:25:42.417Z,55.43
2022-08-28T10:27:46.940Z,55.47
2022-08-28T10:29:51.446Z,55.49
2022-08-28T10:31:55.971Z,55.42
2022-08-28T10:34:00.617Z,55.33
2022-08-28T10:36:05.232Z,55.31
2022-08-28T10:38:10.020Z,55.37
2022-08-28T10:40:14.866Z,55.01
2022-08-28T10:42:19.408Z,54.86
2022-08-28T10:44:23.897Z,55.14
2022-08-28T10:46:29.574Z,55.02
2022-08-28T10:48:34.193Z,55.24
2022-08-28T10:50:38.915Z,55.34
2022-08-28T10:52:43.452Z,55.5
2022-08-28T10:54:47.939Z,55.58
2022-08-28T10:56:58.613Z,55.48
2022-08-28T10:59:03.100Z,55.57
2022-08-28T11:01:08.054Z,55.81
2022-08-28T11:03:36.424Z,56.27
2022-08-28T11:05:40.960Z,56.5
2022-08-28T11:07:45.477Z,56.69
2022-08-28T11:09:50.203Z,56.73
2022-08-28T11:12:01.714Z,56.8
2022-08-28T11:14:06.617Z,57.04
2022-08-28T11:16:11.221Z,57.25
2022-08-28T11:18:15.746Z,57.92
2022-08-28T11:20:20.271Z,58.42
2022-08-28T11:22:25.410Z,58.88
2022-08-28T11:24:29.968Z,59.09
2022-08-28T11:26:36.175Z,59.09
2022-08-28T11:28:40.707Z,59.06
2022-08-28T11:30:45.492Z,59.14
2022-08-28T11:32:50.011Z,58.95
2022-08-28T11:34:54.509Z,58.96
2022-08-28T11:36:59.088Z,58.62
2022-08-28T11:39:03.545Z,58.47
2022-08-28T11:41:08.024Z,58.34
2022-08-28T11:43:12.848Z,58.21
2022-08-28T11:45:20.746Z,58
2022-08-28T11:47:25.254Z,57.69
2022-08-28T11:49:29.774Z,57.68
2022-08-28T11:51:36.048Z,57.53
2022-08-28T11:53:41.642Z,57.42
2022-08-28T11:55:46.140Z,57.29
2022-08-28T11:57:50.729Z,57.3
2022-08-28T11:59:55.357Z,57.12
2022-08-28T12:02:00.008Z,57.21
2022-08-28T12:04:09.833Z,57.2
2022-08-28T12:06:14.536Z,57.33
2022-08-28T12:08:19.043Z,57.2
2022-08-28T12:10:23.552Z,57.2
2022-08-28T12:12:28.707Z,57.05
2022-08-28T12:14:33.338Z,57.17
2022-08-28T12:16:37.942Z,57.08
2022-08-28T12:18:42.550Z,57.1
2022-08-28T12:20:47.085Z,57.01
2022-08-28T12:22:51.682Z,56.95
2022-08-28T12:24:56.234Z,57.04
2022-08-28T12:27:00.963Z,57.29
2022-08-28T12:29:05.585Z,57.84
2022-08-28T12:31:10.399Z,57.91
2022-08-28T12:33:15.584Z,58.45
2022-08-28T12:35:20.267Z,58.34
2022-08-28T12:37:24.819Z,58.23
2022-08-28T12:39:29.390Z,57.96
2022-08-28T12:41:34.026Z,58.35
2022-08-28T12:43:48.010Z,58.35
2022-08-28T12:45:52.721Z,57.79
2022-08-28T12:47:57.350Z,57.62
2022-08-28T12:50:01.902Z,57.45
2022-08-28T12:52:06.452Z,57.66
2022-08-28T12:54:11.074Z,57.9
2022-08-28T12:56:15.694Z,57.97
2022-08-28T12:58:20.418Z,57.94
2022-08-28T13:00:25.017Z,57.86
2022-08-28T13:02:29.938Z,57.66
2022-08-28T13:04:35.384Z,57.53
2022-08-28T13:06:40.026Z,57.36
2022-08-28T13:08:44.558Z,57.5
2022-08-28T13:10:51.728Z,57.71
2022-08-28T13:13:05.735Z,57.79
2022-08-28T13:15:10.442Z,58.01
2022-08-28T13:17:14.990Z,58.13
2022-08-28T13:19:19.578Z,58.08
2022-08-28T13:21:36.481Z,57.88
2022-08-28T13:23:41.068Z,57.9
2022-08-28T13:25:45.803Z,58.08
2022-08-28T13:27:50.520Z,58.69
2022-08-28T13:30:02.279Z,59.19
2022-08-28T13:32:06.899Z,59.19
2022-08-28T13:34:11.452Z,59.18
2022-08-28T13:36:16.068Z,59.24
2022-08-28T13:38:20.689Z,59.11
2022-08-28T13:41:00.719Z,59.22
2022-08-28T13:43:05.550Z,59.58
2022-08-28T13:45:10.291Z,59.63
2022-08-28T13:47:14.842Z,59.75
2022-08-28T13:49:19.416Z,59.56
2022-08-28T13:51:24.040Z,59.42
2022-08-28T13:53:28.777Z,59.21
2022-08-28T13:55:33.379Z,59.09
2022-08-28T13:57:38.458Z,58.85
2022-08-28T13:59:43.261Z,58.62
2022-08-28T14:01:48.146Z,58.34
2022-08-28T14:03:52.768Z,58.33
2022-08-28T14:05:57.295Z,58.48
2022-08-28T14:08:01.922Z,58.33
2022-08-28T14:10:06.443Z,58.21
2022-08-28T14:12:11.093Z,58.01
2022-08-28T14:14:15.817Z,57.87
2022-08-28T14:16:20.507Z,57.66
2022-08-28T14:18:25.124Z,57.4
2022-08-28T14:20:29.773Z,57.32
2022-08-28T14:22:34.502Z,57.63
2022-08-28T14:24:39.017Z,57.96
2022-08-28T14:26:43.599Z,58.1
2022-08-28T14:28:48.262Z,58.02
2022-08-28T14:30:52.751Z,58.08
2022-08-28T14:32:57.346Z,58.11
2022-08-28T14:35:01.878Z,58.28
2022-08-28T14:37:06.519Z,58.23
2022-08-28T14:39:11.043Z,58.19
2022-08-28T14:41:15.689Z,58.04
2022-08-28T14:43:20.252Z,57.97
2022-08-28T14:45:24.962Z,57.87
2022-08-28T14:47:29.706Z,57.74
2022-08-28T14:49:34.229Z,57.48
2022-08-28T14:51:38.753Z,57.42
2022-08-28T14:53:43.403Z,57.4
2022-08-28T14:55:48.009Z,57.5
2022-08-28T14:57:53.377Z,57.48
2022-08-28T14:59:58.098Z,57.64
2022-08-28T15:02:02.658Z,57.5
2022-08-28T15:04:07.512Z,57.61
2022-08-28T15:06:12.232Z,57.61
2022-08-28T15:08:16.786Z,56.78
2022-08-28T15:10:21.396Z,57.56
2022-08-28T15:12:25.929Z,57.9
2022-08-28T15:14:30.656Z,58.18
2022-08-28T15:16:35.424Z,58.26
2022-08-28T15:18:40.201Z,58.32
2022-08-28T15:20:44.821Z,58.34
2022-08-28T15:22:49.556Z,58.5
2022-08-28T15:24:57.750Z,58.57
2022-08-28T15:27:02.274Z,58.46
2022-08-28T15:29:07.003Z,58.42
2022-08-28T15:31:11.727Z,58.45
2022-08-28T15:33:16.736Z,58.5
2022-08-28T15:35:21.501Z,58.36
2022-08-28T15:37:26.666Z,58.52
2022-08-28T15:39:36.137Z,58.61
2022-08-28T15:41:40.815Z,58.71
2022-08-28T15:43:49.730Z,58.54
2022-08-28T15:45:54.568Z,58.38
2022-08-28T15:47:59.217Z,58.22
2022-08-28T15:50:07.501Z,58.15
2022-08-28T15:52:17.241Z,58.18
2022-08-28T15:54:22.630Z,58.13
2022-08-28T15:56:27.246Z,58.07
2022-08-28T15:58:31.766Z,58.02
2022-08-28T16:00:36.629Z,57.86
2022-08-28T16:02:41.203Z,57.91
2022-08-28T16:04:45.735Z,57.89
2022-08-28T16:07:01.861Z,57.82
2022-08-28T16:09:06.651Z,57.79
2022-08-28T16:11:11.360Z,57.63
2022-08-28T16:13:16.403Z,57.81
2022-08-28T16:15:23.492Z,57.98
2022-08-28T16:17:28.411Z,58.19
2022-08-28T16:19:33.643Z,58.28
2022-08-28T16:21:38.242Z,58.2
2022-08-28T16:23:42.781Z,58.13
2022-08-28T16:25:47.304Z,58.17
2022-08-28T16:27:52.168Z,58.41
2022-08-28T16:29:57.721Z,58.56
2022-08-28T16:32:03.567Z,58.81
2022-08-28T16:34:12.474Z,58.98
2022-08-28T16:36:17.057Z,58.92
2022-08-28T16:38:21.673Z,59.06
2022-08-28T16:40:26.458Z,59.04
2022-08-28T16:42:34.863Z,59.39
2022-08-28T16:44:39.453Z,59.26
2022-08-28T16:46:44.360Z,59.21
2022-08-28T16:48:48.949Z,59.57
2022-08-28T16:50:53.617Z,59.86
2022-08-28T16:52:58.241Z,60.22
2022-08-28T16:55:02.865Z,60.14
2022-08-28T16:57:13.527Z,60.34
2022-08-28T16:59:18.637Z,60.42
2022-08-28T17:01:25.903Z,60.6
2022-08-28T17:03:30.552Z,61.04
2022-08-28T17:05:35.189Z,61.35
2022-08-28T17:07:42.847Z,61.38
2022-08-28T17:09:47.496Z,61.49
2022-08-28T17:11:54.477Z,61.66
2022-08-28T17:14:01.311Z,61.53
2022-08-28T17:16:06.163Z,61.4
2022-08-28T17:18:10.842Z,61.62
2022-08-28T17:20:15.627Z,61.55
2022-08-28T17:22:23.260Z,61.16
2022-08-28T17:24:31.765Z,60.8
2022-08-28T17:26:36.553Z,60.34
2022-08-28T17:28:41.289Z,59.75
2022-08-28T17:30:45.832Z,59.35
2022-08-28T17:32:50.420Z,58.97
2022-08-28T17:34:55.142Z,58.77
2022-08-28T17:36:59.767Z,58.43
2022-08-28T17:39:04.384Z,58.28
2022-08-28T17:41:09.091Z,58.09
2022-08-28T17:43:13.714Z,57.83
2022-08-28T17:45:18.356Z,57.91
2022-08-28T17:47:32.196Z,57.76
2022-08-28T17:49:36.922Z,57.67
2022-08-28T17:51:46.233Z,57.4
2022-08-28T17:53:50.869Z,57.53
2022-08-28T17:55:55.594Z,57.5
2022-08-28T17:58:00.199Z,57.51
2022-08-28T18:00:07.732Z,57.33
2022-08-28T18:02:12.549Z,57.26
2022-08-28T18:04:25.334Z,57.24
2022-08-28T18:06:29.986Z,57.41
2022-08-28T18:08:35.554Z,57.54
2022-08-28T18:10:40.648Z,57.62
2022-08-28T18:12:45.279Z,57.48
2022-08-28T18:14:49.857Z,57.44
2022-08-28T18:16:54.671Z,57.53
2022-08-28T18:18:59.224Z,57.75
2022-08-28T18:21:03.790Z,57.79
2022-08-28T18:23:08.490Z,57.85
2022-08-28T18:25:13.386Z,57.88
2022-08-28T18:27:18.083Z,57.96
2022-08-28T18:29:22.870Z,58.02
2022-08-28T18:31:29.730Z,58.07
2022-08-28T18:33:34.369Z,57.97
2022-08-28T18:35:50.565Z,58.25
2022-08-28T18:37:55.388Z,58.69
2022-08-28T18:40:02.680Z,58.87
2022-08-28T18:42:07.388Z,58.54
2022-08-28T18:44:12.213Z,58.76
2022-08-28T18:46:17.190Z,58.82
2022-08-28T18:48:21.812Z,58.4
2022-08-28T18:50:26.386Z,58.49
2022-08-28T18:52:31.107Z,58.61
2022-08-28T18:54:36.762Z,58.22
2022-08-28T18:56:44.263Z,58.52
2022-08-28T18:58:48.832Z,58.36
2022-08-28T19:00:53.377Z,58.52
2022-08-28T19:03:00.223Z,58.32
2022-08-28T19:05:04.860Z,58.37
2022-08-28T19:07:09.495Z,58.54
2022-08-28T19:09:22.605Z,58.26
2022-08-28T19:11:27.348Z,58.51
2022-08-28T19:13:31.963Z,58.8
2022-08-28T19:15:37.051Z,58.87
2022-08-28T19:17:41.597Z,58.54
2022-08-28T19:19:46.236Z,58.16
2022-08-28T19:21:50.823Z,58.02
2022-08-28T19:23:58.556Z,58.16
2022-08-28T19:26:03.147Z,58.02
2022-08-28T19:28:08.002Z,57.92
2022-08-28T19:30:12.610Z,57.76
2022-08-28T19:32:17.251Z,58.01
2022-08-28T19:34:21.866Z,57.99
2022-08-28T19:36:26.483Z,57.99
2022-08-28T19:38:32.947Z,57.99
2022-08-28T19:40:37.841Z,58.1
2022-08-28T19:42:42.599Z,58.15
2022-08-28T19:45:00.841Z,58.09
2022-08-28T19:47:05.441Z,57.98
2022-08-28T19:49:10.051Z,57.95
2022-08-28T19:51:24.071Z,58.06
2022-08-28T19:53:28.716Z,57.92
2022-08-28T19:55:33.352Z,57.81
2022-08-28T19:57:37.991Z,57.73
2022-08-28T19:59:46.979Z,57.65
2022-08-28T20:01:51.904Z,57.35
2022-08-28T20:03:56.393Z,57.55
2022-08-28T20:06:00.982Z,57.55
2022-08-28T20:08:05.716Z,57.53
2022-08-28T20:10:10.311Z,57.48
2022-08-28T20:12:15.050Z,57.42
2022-08-28T20:14:19.634Z,57.35
2022-08-28T20:16:24.335Z,57.32
2022-08-28T20:18:29.841Z,57.29
2022-08-28T20:20:34.562Z,57.23
2022-08-28T20:22:40.605Z,57.21
2022-08-28T20:24:45.238Z,57.2
2022-08-28T20:26:49.857Z,57.12
2022-08-28T20:28:54.416Z,57.13
2022-08-28T20:30:59.444Z,57.08
2022-08-28T20:33:04.346Z,56.92
2022-08-28T20:35:09.384Z,56.83
2022-08-28T20:37:14.214Z,56.79
2022-08-28T20:39:19.029Z,56.73
2022-08-28T20:41:23.852Z,56.65
2022-08-28T20:43:28.440Z,56.6
2022-08-28T20:45:33.197Z,56.31
2022-08-28T20:47:38.026Z,56.13
2022-08-28T20:49:42.748Z,56.44
2022-08-28T20:51:47.368Z,56.54
2022-08-28T20:53:51.994Z,56.48
2022-08-28T20:55:56.567Z,56.32
2022-08-28T20:58:01.128Z,56.19
2022-08-28T21:00:07.900Z,56.1
2022-08-28T21:02:12.560Z,56.08
2022-08-28T21:04:17.146Z,55.96
2022-08-28T21:06:21.750Z,55.9
2022-08-28T21:08:26.367Z,55.74
2022-08-28T21:10:30.956Z,55.69
2022-08-28T21:12:35.684Z,55.61
2022-08-28T21:14:40.461Z,55.55
2022-08-28T21:16:45.262Z,55.45
2022-08-28T21:19:17.892Z,55.36
2022-08-28T21:21:24.818Z,55.28
2022-08-28T21:23:29.451Z,55.17
2022-08-28T21:25:34.079Z,55.12
2022-08-28T21:27:39.216Z,55.02
2022-08-28T21:29:43.820Z,54.99
2022-08-28T21:31:48.690Z,54.78
2022-08-28T21:33:53.385Z,54.8
2022-08-28T21:35:57.990Z,54.8
2022-08-28T21:38:02.653Z,54.72
2022-08-28T21:40:07.642Z,54.59
2022-08-28T21:42:12.285Z,54.38
2022-08-28T21:44:16.852Z,54.45
2022-08-28T21:46:21.701Z,54.43
2022-08-28T21:48:26.588Z,54.42
2022-08-28T21:50:32.469Z,54.33
2022-08-28T21:52:37.062Z,54.13
2022-08-28T21:54:42.074Z,54.22
2022-08-28T21:56:46.878Z,54.2
2022-08-28T21:58:55.189Z,54.15
2022-08-28T22:01:00.051Z,54.01
2022-08-28T22:03:04.584Z,54.2
2022-08-28T22:05:09.265Z,54.16
2022-08-28T22:07:14.071Z,54.17
2022-08-28T22:09:18.683Z,54.09
2022-08-28T22:11:27.298Z,54.13
2022-08-28T22:13:32.389Z,54.16
2022-08-28T22:15:36.956Z,54.14
2022-08-28T22:17:41.494Z,54
2022-08-28T22:19:48.964Z,54.14
2022-08-28T22:21:53.584Z,54.09
2022-08-28T22:23:58.094Z,54.19
2022-08-28T22:26:02.649Z,54.16
2022-08-28T22:28:07.398Z,53.91
2022-08-28T22:30:12.069Z,53.76
2022-08-28T22:32:16.795Z,53.69
2022-08-28T22:34:21.397Z,53.27
2022-08-28T22:36:31.184Z,53.27
2022-08-28T22:38:35.798Z,53.51
2022-08-28T22:40:40.615Z,53.56
2022-08-28T22:42:45.241Z,53.27
2022-08-28T22:44:49.966Z,53.4
2022-08-28T22:46:54.594Z,53.43
2022-08-28T22:48:59.107Z,52.91
2022-08-28T22:51:03.816Z,53.3
2022-08-28T22:53:08.349Z,53.32
2022-08-28T22:55:14.615Z,53.26
2022-08-28T22:57:19.230Z,53.28
2022-08-28T22:59:23.854Z,52.83
2022-08-28T23:01:28.474Z,52.96
2022-08-28T23:03:33.470Z,52.71
2022-08-28T23:05:38.233Z,52.9
2022-08-28T23:07:42.846Z,52.77
2022-08-28T23:09:47.477Z,52.68
2022-08-28T23:11:52.043Z,52.55
2022-08-28T23:13:56.696Z,52
2022-08-28T23:16:01.335Z,52.25
2022-08-28T23:18:06.442Z,52.57
2022-08-28T23:20:12.229Z,52.28
2022-08-28T23:22:16.840Z,52.31
2022-08-28T23:24:21.438Z,52.42
2022-08-28T23:26:25.974Z,52.28
2022-08-28T23:28:30.588Z,52.01
2022-08-28T23:30:35.372Z,52.25
2022-08-28T23:32:41.965Z,52.25
2022-08-28T23:34:47.026Z,52.25
2022-08-28T23:36:52.013Z,52.11
2022-08-28T23:38:56.477Z,52.17
2022-08-28T23:41:01.675Z,52.28
2022-08-28T23:43:06.543Z,51.86
2022-08-28T23:45:11.274Z,51.62
2022-08-28T23:47:16.491Z,52.02
2022-08-28T23:49:27.769Z,51.14
2022-08-28T23:51:33.419Z,51.91
2022-08-28T23:53:38.027Z,51.43
2022-08-28T23:55:43.312Z,51.63
2022-08-28T23:57:53.175Z,51.86
2022-08-28T23:59:58.369Z,51.76
